sensor_id;sensor_type;location;lat;lon;timestamp;P1;durP1;ratioP1;P2;durP2;ratioP2
54430;SDS011;40342;52.998;5.862;2024-03-29T00:01:32;2.97;;;0.68;;
54430;SDS011;40342;52.998;5.862;2024-03-29T00:03:57;5.97;;;1.33;;
54430;SDS011;40342;52.998;5.862;2024-03-29T00:06:23;6.55;;;1.50;;
54430;SDS011;40342;52.998;5.862;2024-03-29T00:08:49;3.13;;;0.85;;
54430;SDS011;40342;52.998;5.862;2024-03-29T00:11:14;5.28;;;0.85;;
54430;SDS011;40342;52.998;5.862;2024-03-29T00:13:40;3.78;;;1.00;;
54430;SDS011;40342;52.998;5.862;2024-03-29T00:16:06;2.70;;;1.00;;
54430;SDS011;40342;52.998;5.862;2024-03-29T00:18:32;2.70;;;1.15;;
54430;SDS011;40342;52.998;5.862;2024-03-29T00:20:57;5.68;;;1.58;;
54430;SDS011;40342;52.998;5.862;2024-03-29T00:23:23;4.40;;;1.10;;
54430;SDS011;40342;52.998;5.862;2024-03-29T00:25:48;2.60;;;0.80;;
54430;SDS011;40342;52.998;5.862;2024-03-29T00:28:14;4.10;;;1.25;;
54430;SDS011;40342;52.998;5.862;2024-03-29T00:30:40;4.15;;;0.98;;
54430;SDS011;40342;52.998;5.862;2024-03-29T00:33:05;2.63;;;0.98;;
54430;SDS011;40342;52.998;5.862;2024-03-29T00:35:31;2.78;;;0.70;;
54430;SDS011;40342;52.998;5.862;2024-03-29T00:37:56;2.10;;;0.73;;
54430;SDS011;40342;52.998;5.862;2024-03-29T00:40:22;5.82;;;1.15;;
54430;SDS011;40342;52.998;5.862;2024-03-29T00:42:48;4.25;;;1.27;;
54430;SDS011;40342;52.998;5.862;2024-03-29T00:45:13;4.28;;;1.17;;
54430;SDS011;40342;52.998;5.862;2024-03-29T00:47:39;5.72;;;1.27;;
54430;SDS011;40342;52.998;5.862;2024-03-29T00:50:05;4.30;;;1.17;;
54430;SDS011;40342;52.998;5.862;2024-03-29T00:52:34;4.40;;;1.35;;
54430;SDS011;40342;52.998;5.862;2024-03-29T00:55:00;4.38;;;1.00;;
54430;SDS011;40342;52.998;5.862;2024-03-29T00:57:25;4.88;;;1.10;;
54430;SDS011;40342;52.998;5.862;2024-03-29T00:59:51;6.88;;;1.65;;
54430;SDS011;40342;52.998;5.862;2024-03-29T01:02:17;5.05;;;1.15;;
54430;SDS011;40342;52.998;5.862;2024-03-29T01:04:42;3.60;;;0.95;;
54430;SDS011;40342;52.998;5.862;2024-03-29T01:07:08;4.43;;;1.35;;
54430;SDS011;40342;52.998;5.862;2024-03-29T01:09:34;3.47;;;1.08;;
54430;SDS011;40342;52.998;5.862;2024-03-29T01:11:59;8.65;;;1.35;;
54430;SDS011;40342;52.998;5.862;2024-03-29T01:14:25;4.65;;;1.40;;
54430;SDS011;40342;52.998;5.862;2024-03-29T01:16:50;4.97;;;1.15;;
54430;SDS011;40342;52.998;5.862;2024-03-29T01:19:17;3.58;;;1.50;;
54430;SDS011;40342;52.998;5.862;2024-03-29T01:21:43;1.95;;;0.80;;
54430;SDS011;40342;52.998;5.862;2024-03-29T01:24:09;4.18;;;1.20;;
54430;SDS011;40342;52.998;5.862;2024-03-29T01:26:35;3.33;;;0.90;;
54430;SDS011;40342;52.998;5.862;2024-03-29T01:29:00;3.10;;;0.85;;
54430;SDS011;40342;52.998;5.862;2024-03-29T01:31:26;5.25;;;1.10;;
54430;SDS011;40342;52.998;5.862;2024-03-29T01:33:52;4.30;;;1.10;;
54430;SDS011;40342;52.998;5.862;2024-03-29T01:36:17;4.53;;;1.17;;
54430;SDS011;40342;52.998;5.862;2024-03-29T01:38:43;2.45;;;1.08;;
54430;SDS011;40342;52.998;5.862;2024-03-29T01:41:10;4.95;;;1.42;;
54430;SDS011;40342;52.998;5.862;2024-03-29T01:43:37;3.90;;;1.20;;
54430;SDS011;40342;52.998;5.862;2024-03-29T01:46:03;3.33;;;1.00;;
54430;SDS011;40342;52.998;5.862;2024-03-29T01:48:31;4.88;;;1.08;;
54430;SDS011;40342;52.998;5.862;2024-03-29T01:50:57;2.28;;;0.82;;
54430;SDS011;40342;52.998;5.862;2024-03-29T01:53:24;7.60;;;1.52;;
54430;SDS011;40342;52.998;5.862;2024-03-29T01:55:50;3.90;;;1.00;;
54430;SDS011;40342;52.998;5.862;2024-03-29T01:58:17;3.67;;;0.98;;
54430;SDS011;40342;52.998;5.862;2024-03-29T02:00:48;5.60;;;1.23;;
54430;SDS011;40342;52.998;5.862;2024-03-29T02:03:18;3.95;;;1.23;;
54430;SDS011;40342;52.998;5.862;2024-03-29T02:05:44;4.47;;;1.10;;
54430;SDS011;40342;52.998;5.862;2024-03-29T02:08:11;3.42;;;1.25;;
54430;SDS011;40342;52.998;5.862;2024-03-29T02:10:37;3.40;;;1.00;;
54430;SDS011;40342;52.998;5.862;2024-03-29T02:13:03;3.10;;;0.90;;
54430;SDS011;40342;52.998;5.862;2024-03-29T02:15:29;4.90;;;1.30;;
54430;SDS011;40342;52.998;5.862;2024-03-29T02:17:56;4.47;;;1.30;;
54430;SDS011;40342;52.998;5.862;2024-03-29T02:20:22;2.53;;;1.17;;
54430;SDS011;40342;52.998;5.862;2024-03-29T02:22:58;6.00;;;1.08;;
54430;SDS011;40342;52.998;5.862;2024-03-29T02:25:27;4.05;;;0.90;;
54430;SDS011;40342;52.998;5.862;2024-03-29T02:27:53;6.03;;;1.55;;
54430;SDS011;40342;52.998;5.862;2024-03-29T02:30:19;3.70;;;1.40;;
54430;SDS011;40342;52.998;5.862;2024-03-29T02:32:45;4.18;;;1.13;;
54430;SDS011;40342;52.998;5.862;2024-03-29T02:35:11;3.45;;;1.10;;
54430;SDS011;40342;52.998;5.862;2024-03-29T02:37:37;2.70;;;1.00;;
54430;SDS011;40342;52.998;5.862;2024-03-29T02:40:03;2.42;;;0.95;;
54430;SDS011;40342;52.998;5.862;2024-03-29T02:42:30;4.03;;;0.93;;
54430;SDS011;40342;52.998;5.862;2024-03-29T02:44:55;2.42;;;0.90;;
54430;SDS011;40342;52.998;5.862;2024-03-29T02:47:21;4.25;;;1.35;;
54430;SDS011;40342;52.998;5.862;2024-03-29T02:49:47;4.38;;;1.40;;
54430;SDS011;40342;52.998;5.862;2024-03-29T02:52:13;4.75;;;1.33;;
54430;SDS011;40342;52.998;5.862;2024-03-29T02:54:39;2.88;;;1.20;;
54430;SDS011;40342;52.998;5.862;2024-03-29T02:57:05;3.60;;;1.17;;
54430;SDS011;40342;52.998;5.862;2024-03-29T02:59:31;6.35;;;1.15;;
54430;SDS011;40342;52.998;5.862;2024-03-29T03:01:57;3.53;;;1.27;;
54430;SDS011;40342;52.998;5.862;2024-03-29T03:04:22;4.28;;;1.40;;
54430;SDS011;40342;52.998;5.862;2024-03-29T03:06:48;4.75;;;1.55;;
54430;SDS011;40342;52.998;5.862;2024-03-29T03:09:14;4.53;;;1.08;;
54430;SDS011;40342;52.998;5.862;2024-03-29T03:11:58;5.72;;;1.60;;
54430;SDS011;40342;52.998;5.862;2024-03-29T03:14:24;3.42;;;1.20;;
54430;SDS011;40342;52.998;5.862;2024-03-29T03:16:50;4.95;;;1.45;;
54430;SDS011;40342;52.998;5.862;2024-03-29T03:19:15;3.40;;;1.30;;
54430;SDS011;40342;52.998;5.862;2024-03-29T03:21:41;4.30;;;0.88;;
54430;SDS011;40342;52.998;5.862;2024-03-29T03:24:06;2.47;;;0.98;;
54430;SDS011;40342;52.998;5.862;2024-03-29T03:26:32;2.30;;;1.20;;
54430;SDS011;40342;52.998;5.862;2024-03-29T03:28:58;3.35;;;1.17;;
54430;SDS011;40342;52.998;5.862;2024-03-29T03:31:23;5.30;;;1.27;;
54430;SDS011;40342;52.998;5.862;2024-03-29T03:33:49;3.95;;;1.00;;
54430;SDS011;40342;52.998;5.862;2024-03-29T03:36:15;3.42;;;1.02;;
54430;SDS011;40342;52.998;5.862;2024-03-29T03:38:40;7.05;;;1.10;;
54430;SDS011;40342;52.998;5.862;2024-03-29T03:41:06;6.97;;;1.15;;
54430;SDS011;40342;52.998;5.862;2024-03-29T03:43:32;3.35;;;1.30;;
54430;SDS011;40342;52.998;5.862;2024-03-29T03:46:01;4.30;;;1.25;;
54430;SDS011;40342;52.998;5.862;2024-03-29T03:48:27;6.50;;;1.15;;
54430;SDS011;40342;52.998;5.862;2024-03-29T03:50:56;2.92;;;0.88;;
54430;SDS011;40342;52.998;5.862;2024-03-29T03:53:21;4.60;;;1.00;;
54430;SDS011;40342;52.998;5.862;2024-03-29T03:55:47;2.17;;;0.68;;
54430;SDS011;40342;52.998;5.862;2024-03-29T03:58:13;5.45;;;1.42;;
54430;SDS011;40342;52.998;5.862;2024-03-29T04:00:39;6.05;;;1.20;;
54430;SDS011;40342;52.998;5.862;2024-03-29T04:03:04;5.60;;;1.40;;
54430;SDS011;40342;52.998;5.862;2024-03-29T04:05:30;4.30;;;1.30;;
54430;SDS011;40342;52.998;5.862;2024-03-29T04:07:57;4.43;;;1.02;;
54430;SDS011;40342;52.998;5.862;2024-03-29T04:10:23;2.63;;;0.70;;
54430;SDS011;40342;52.998;5.862;2024-03-29T04:12:52;5.85;;;1.25;;
54430;SDS011;40342;52.998;5.862;2024-03-29T04:15:18;5.47;;;1.00;;
54430;SDS011;40342;52.998;5.862;2024-03-29T04:17:43;4.97;;;1.05;;
54430;SDS011;40342;52.998;5.862;2024-03-29T04:20:09;4.78;;;1.00;;
54430;SDS011;40342;52.998;5.862;2024-03-29T04:22:35;4.20;;;0.93;;
54430;SDS011;40342;52.998;5.862;2024-03-29T04:25:00;7.32;;;1.23;;
54430;SDS011;40342;52.998;5.862;2024-03-29T04:27:27;4.00;;;0.80;;
54430;SDS011;40342;52.998;5.862;2024-03-29T04:29:53;3.10;;;1.20;;
54430;SDS011;40342;52.998;5.862;2024-03-29T04:32:19;4.95;;;1.00;;
54430;SDS011;40342;52.998;5.862;2024-03-29T04:34:51;3.22;;;0.82;;
54430;SDS011;40342;52.998;5.862;2024-03-29T04:37:17;3.03;;;0.85;;
54430;SDS011;40342;52.998;5.862;2024-03-29T04:39:43;2.10;;;0.70;;
54430;SDS011;40342;52.998;5.862;2024-03-29T04:42:10;2.97;;;0.88;;
54430;SDS011;40342;52.998;5.862;2024-03-29T04:44:36;5.13;;;1.38;;
54430;SDS011;40342;52.998;5.862;2024-03-29T04:47:01;3.13;;;1.13;;
54430;SDS011;40342;52.998;5.862;2024-03-29T04:49:27;4.85;;;0.93;;
54430;SDS011;40342;52.998;5.862;2024-03-29T04:51:59;2.38;;;1.20;;
54430;SDS011;40342;52.998;5.862;2024-03-29T04:54:26;1.88;;;0.80;;
54430;SDS011;40342;52.998;5.862;2024-03-29T04:56:52;1.70;;;1.00;;
54430;SDS011;40342;52.998;5.862;2024-03-29T04:59:18;2.67;;;1.10;;
54430;SDS011;40342;52.998;5.862;2024-03-29T05:01:45;5.90;;;1.25;;
54430;SDS011;40342;52.998;5.862;2024-03-29T05:04:19;2.28;;;0.60;;
54430;SDS011;40342;52.998;5.862;2024-03-29T05:06:51;3.03;;;1.02;;
54430;SDS011;40342;52.998;5.862;2024-03-29T05:09:20;3.95;;;0.85;;
54430;SDS011;40342;52.998;5.862;2024-03-29T05:11:46;2.22;;;0.70;;
54430;SDS011;40342;52.998;5.862;2024-03-29T05:14:15;2.08;;;0.90;;
54430;SDS011;40342;52.998;5.862;2024-03-29T05:16:43;2.05;;;0.70;;
54430;SDS011;40342;52.998;5.862;2024-03-29T05:19:12;1.65;;;0.60;;
54430;SDS011;40342;52.998;5.862;2024-03-29T05:21:39;2.15;;;0.90;;
54430;SDS011;40342;52.998;5.862;2024-03-29T05:24:05;2.45;;;0.60;;
54430;SDS011;40342;52.998;5.862;2024-03-29T05:26:31;4.78;;;0.88;;
54430;SDS011;40342;52.998;5.862;2024-03-29T05:28:57;3.20;;;0.70;;
54430;SDS011;40342;52.998;5.862;2024-03-29T05:31:24;3.65;;;1.30;;
54430;SDS011;40342;52.998;5.862;2024-03-29T05:33:51;3.70;;;1.00;;
54430;SDS011;40342;52.998;5.862;2024-03-29T05:36:16;2.92;;;0.75;;
54430;SDS011;40342;52.998;5.862;2024-03-29T05:38:43;3.67;;;0.90;;
54430;SDS011;40342;52.998;5.862;2024-03-29T05:41:09;3.45;;;1.00;;
54430;SDS011;40342;52.998;5.862;2024-03-29T05:43:35;2.40;;;0.70;;
54430;SDS011;40342;52.998;5.862;2024-03-29T05:46:01;1.83;;;0.90;;
54430;SDS011;40342;52.998;5.862;2024-03-29T05:48:28;3.13;;;1.13;;
54430;SDS011;40342;52.998;5.862;2024-03-29T05:50:54;2.22;;;0.60;;
54430;SDS011;40342;52.998;5.862;2024-03-29T05:53:20;4.47;;;0.90;;
54430;SDS011;40342;52.998;5.862;2024-03-29T05:55:45;2.45;;;0.95;;
54430;SDS011;40342;52.998;5.862;2024-03-29T05:58:11;0.70;;;0.60;;
54430;SDS011;40342;52.998;5.862;2024-03-29T06:00:42;2.08;;;0.82;;
54430;SDS011;40342;52.998;5.862;2024-03-29T06:03:08;2.28;;;0.60;;
54430;SDS011;40342;52.998;5.862;2024-03-29T06:05:33;1.73;;;0.68;;
54430;SDS011;40342;52.998;5.862;2024-03-29T06:07:59;2.10;;;0.60;;
54430;SDS011;40342;52.998;5.862;2024-03-29T06:10:24;2.00;;;0.93;;
54430;SDS011;40342;52.998;5.862;2024-03-29T06:12:50;2.67;;;0.70;;
54430;SDS011;40342;52.998;5.862;2024-03-29T06:15:16;1.10;;;0.77;;
54430;SDS011;40342;52.998;5.862;2024-03-29T06:18:00;1.40;;;0.93;;
54430;SDS011;40342;52.998;5.862;2024-03-29T06:20:25;1.23;;;0.70;;
54430;SDS011;40342;52.998;5.862;2024-03-29T06:22:51;3.40;;;0.63;;
54430;SDS011;40342;52.998;5.862;2024-03-29T06:25:17;0.52;;;0.45;;
54430;SDS011;40342;52.998;5.862;2024-03-29T06:27:42;3.17;;;0.60;;
54430;SDS011;40342;52.998;5.862;2024-03-29T06:30:12;1.67;;;0.70;;
54430;SDS011;40342;52.998;5.862;2024-03-29T06:32:38;2.25;;;0.63;;
54430;SDS011;40342;52.998;5.862;2024-03-29T06:35:04;1.98;;;0.57;;
54430;SDS011;40342;52.998;5.862;2024-03-29T06:37:31;3.53;;;0.60;;
54430;SDS011;40342;52.998;5.862;2024-03-29T06:39:56;1.50;;;0.60;;
54430;SDS011;40342;52.998;5.862;2024-03-29T06:42:25;3.28;;;1.00;;
54430;SDS011;40342;52.998;5.862;2024-03-29T06:44:50;0.90;;;0.60;;
54430;SDS011;40342;52.998;5.862;2024-03-29T06:47:17;1.45;;;0.60;;
54430;SDS011;40342;52.998;5.862;2024-03-29T06:49:43;2.05;;;0.65;;
54430;SDS011;40342;52.998;5.862;2024-03-29T06:52:08;1.05;;;0.43;;
54430;SDS011;40342;52.998;5.862;2024-03-29T06:54:34;3.83;;;0.70;;
54430;SDS011;40342;52.998;5.862;2024-03-29T06:57:00;1.45;;;0.85;;
54430;SDS011;40342;52.998;5.862;2024-03-29T06:59:26;0.95;;;0.50;;
54430;SDS011;40342;52.998;5.862;2024-03-29T07:01:52;2.42;;;0.63;;
54430;SDS011;40342;52.998;5.862;2024-03-29T07:04:19;1.35;;;0.45;;
54430;SDS011;40342;52.998;5.862;2024-03-29T07:06:48;1.58;;;0.68;;
54430;SDS011;40342;52.998;5.862;2024-03-29T07:09:21;3.75;;;0.63;;
54430;SDS011;40342;52.998;5.862;2024-03-29T07:11:51;4.43;;;0.73;;
54430;SDS011;40342;52.998;5.862;2024-03-29T07:14:17;0.85;;;0.43;;
54430;SDS011;40342;52.998;5.862;2024-03-29T07:16:44;0.50;;;0.40;;
54430;SDS011;40342;52.998;5.862;2024-03-29T07:19:10;2.00;;;0.55;;
54430;SDS011;40342;52.998;5.862;2024-03-29T07:21:38;1.23;;;0.32;;
54430;SDS011;40342;52.998;5.862;2024-03-29T07:24:04;0.70;;;0.40;;
54430;SDS011;40342;52.998;5.862;2024-03-29T07:26:31;1.30;;;0.40;;
54430;SDS011;40342;52.998;5.862;2024-03-29T07:28:57;3.75;;;0.55;;
54430;SDS011;40342;52.998;5.862;2024-03-29T07:31:22;0.40;;;0.40;;
54430;SDS011;40342;52.998;5.862;2024-03-29T07:33:48;5.78;;;0.90;;
54430;SDS011;40342;52.998;5.862;2024-03-29T07:36:14;0.85;;;0.57;;
54430;SDS011;40342;52.998;5.862;2024-03-29T07:38:41;1.20;;;0.57;;
54430;SDS011;40342;52.998;5.862;2024-03-29T07:41:07;2.30;;;0.57;;
54430;SDS011;40342;52.998;5.862;2024-03-29T07:43:41;1.65;;;0.52;;
54430;SDS011;40342;52.998;5.862;2024-03-29T07:46:17;1.08;;;0.57;;
54430;SDS011;40342;52.998;5.862;2024-03-29T07:48:43;2.03;;;0.50;;
54430;SDS011;40342;52.998;5.862;2024-03-29T07:51:08;1.30;;;0.40;;
54430;SDS011;40342;52.998;5.862;2024-03-29T07:53:34;0.80;;;0.30;;
54430;SDS011;40342;52.998;5.862;2024-03-29T07:55:59;1.15;;;0.50;;
54430;SDS011;40342;52.998;5.862;2024-03-29T07:58:26;1.25;;;0.32;;
54430;SDS011;40342;52.998;5.862;2024-03-29T08:00:52;1.20;;;0.50;;
54430;SDS011;40342;52.998;5.862;2024-03-29T08:03:18;1.50;;;0.60;;
54430;SDS011;40342;52.998;5.862;2024-03-29T08:05:57;1.90;;;0.52;;
54430;SDS011;40342;52.998;5.862;2024-03-29T08:08:23;1.08;;;0.30;;
54430;SDS011;40342;52.998;5.862;2024-03-29T08:10:50;2.03;;;0.52;;
54430;SDS011;40342;52.998;5.862;2024-03-29T08:13:16;3.70;;;0.60;;
54430;SDS011;40342;52.998;5.862;2024-03-29T08:15:45;1.60;;;0.43;;
54430;SDS011;40342;52.998;5.862;2024-03-29T08:18:11;0.45;;;0.30;;
54430;SDS011;40342;52.998;5.862;2024-03-29T08:20:36;0.88;;;0.22;;
54430;SDS011;40342;52.998;5.862;2024-03-29T08:23:03;2.80;;;0.40;;
54430;SDS011;40342;52.998;5.862;2024-03-29T08:25:29;1.55;;;0.73;;
54430;SDS011;40342;52.998;5.862;2024-03-29T08:27:55;0.80;;;0.45;;
54430;SDS011;40342;52.998;5.862;2024-03-29T08:30:26;1.20;;;0.60;;
54430;SDS011;40342;52.998;5.862;2024-03-29T08:32:56;1.20;;;0.98;;
54430;SDS011;40342;52.998;5.862;2024-03-29T08:35:24;2.83;;;1.15;;
54430;SDS011;40342;52.998;5.862;2024-03-29T08:37:50;5.35;;;1.40;;
54430;SDS011;40342;52.998;5.862;2024-03-29T08:40:16;1.80;;;1.30;;
54430;SDS011;40342;52.998;5.862;2024-03-29T08:42:42;1.80;;;1.40;;
54430;SDS011;40342;52.998;5.862;2024-03-29T08:45:09;1.75;;;1.00;;
54430;SDS011;40342;52.998;5.862;2024-03-29T08:47:35;2.47;;;0.63;;
54430;SDS011;40342;52.998;5.862;2024-03-29T08:50:00;0.68;;;0.68;;
54430;SDS011;40342;52.998;5.862;2024-03-29T08:52:28;1.40;;;0.73;;
54430;SDS011;40342;52.998;5.862;2024-03-29T08:54:54;0.60;;;0.40;;
54430;SDS011;40342;52.998;5.862;2024-03-29T08:57:20;1.27;;;0.40;;
54430;SDS011;40342;52.998;5.862;2024-03-29T08:59:45;1.67;;;0.43;;
54430;SDS011;40342;52.998;5.862;2024-03-29T09:02:11;0.80;;;0.40;;
54430;SDS011;40342;52.998;5.862;2024-03-29T09:04:37;1.30;;;0.45;;
54430;SDS011;40342;52.998;5.862;2024-03-29T09:07:02;0.98;;;0.40;;
54430;SDS011;40342;52.998;5.862;2024-03-29T09:09:29;0.70;;;0.47;;
54430;SDS011;40342;52.998;5.862;2024-03-29T09:11:55;1.85;;;0.40;;
54430;SDS011;40342;52.998;5.862;2024-03-29T09:14:21;0.60;;;0.40;;
54430;SDS011;40342;52.998;5.862;2024-03-29T09:16:46;1.77;;;0.60;;
54430;SDS011;40342;52.998;5.862;2024-03-29T09:19:13;0.88;;;0.63;;
54430;SDS011;40342;52.998;5.862;2024-03-29T09:21:39;1.75;;;0.55;;
54430;SDS011;40342;52.998;5.862;2024-03-29T09:24:05;1.77;;;0.88;;
54430;SDS011;40342;52.998;5.862;2024-03-29T09:26:32;1.15;;;0.60;;
54430;SDS011;40342;52.998;5.862;2024-03-29T09:28:58;0.88;;;0.60;;
54430;SDS011;40342;52.998;5.862;2024-03-29T09:31:24;1.00;;;0.68;;
54430;SDS011;40342;52.998;5.862;2024-03-29T09:33:49;1.10;;;0.50;;
54430;SDS011;40342;52.998;5.862;2024-03-29T09:36:21;0.75;;;0.35;;
54430;SDS011;40342;52.998;5.862;2024-03-29T09:38:50;0.43;;;0.40;;
54430;SDS011;40342;52.998;5.862;2024-03-29T09:41:16;0.63;;;0.47;;
54430;SDS011;40342;52.998;5.862;2024-03-29T09:43:47;0.47;;;0.47;;
54430;SDS011;40342;52.998;5.862;2024-03-29T09:46:13;0.70;;;0.40;;
54430;SDS011;40342;52.998;5.862;2024-03-29T09:48:40;1.05;;;0.80;;
54430;SDS011;40342;52.998;5.862;2024-03-29T09:51:07;1.40;;;0.52;;
54430;SDS011;40342;52.998;5.862;2024-03-29T09:53:34;0.30;;;0.30;;
54430;SDS011;40342;52.998;5.862;2024-03-29T09:56:03;1.52;;;0.50;;
54430;SDS011;40342;52.998;5.862;2024-03-29T09:58:30;0.65;;;0.32;;
54430;SDS011;40342;52.998;5.862;2024-03-29T10:00:57;0.47;;;0.40;;
54430;SDS011;40342;52.998;5.862;2024-03-29T10:03:25;0.73;;;0.40;;
54430;SDS011;40342;52.998;5.862;2024-03-29T10:05:57;0.57;;;0.50;;
54430;SDS011;40342;52.998;5.862;2024-03-29T10:08:25;0.50;;;0.28;;
54430;SDS011;40342;52.998;5.862;2024-03-29T10:10:58;1.90;;;0.50;;
54430;SDS011;40342;52.998;5.862;2024-03-29T10:13:24;0.20;;;0.20;;
54430;SDS011;40342;52.998;5.862;2024-03-29T10:15:51;0.75;;;0.30;;
54430;SDS011;40342;52.998;5.862;2024-03-29T10:18:20;0.35;;;0.30;;
54430;SDS011;40342;52.998;5.862;2024-03-29T10:20:47;1.45;;;0.38;;
54430;SDS011;40342;52.998;5.862;2024-03-29T10:23:22;1.38;;;0.30;;
54430;SDS011;40342;52.998;5.862;2024-03-29T10:25:49;0.40;;;0.30;;
54430;SDS011;40342;52.998;5.862;2024-03-29T10:28:15;0.28;;;0.28;;
54430;SDS011;40342;52.998;5.862;2024-03-29T10:30:43;1.17;;;0.30;;
54430;SDS011;40342;52.998;5.862;2024-03-29T10:33:08;0.85;;;0.30;;
54430;SDS011;40342;52.998;5.862;2024-03-29T10:35:34;0.57;;;0.50;;
54430;SDS011;40342;52.998;5.862;2024-03-29T10:38:02;0.55;;;0.55;;
54430;SDS011;40342;52.998;5.862;2024-03-29T10:40:29;0.40;;;0.40;;
54430;SDS011;40342;52.998;5.862;2024-03-29T10:42:55;1.20;;;0.52;;
54430;SDS011;40342;52.998;5.862;2024-03-29T10:45:22;1.92;;;0.30;;
54430;SDS011;40342;52.998;5.862;2024-03-29T10:47:49;4.07;;;0.47;;
54430;SDS011;40342;52.998;5.862;2024-03-29T10:50:17;1.20;;;0.50;;
54430;SDS011;40342;52.998;5.862;2024-03-29T10:52:46;0.93;;;0.40;;
54430;SDS011;40342;52.998;5.862;2024-03-29T10:55:13;1.10;;;0.40;;
54430;SDS011;40342;52.998;5.862;2024-03-29T10:57:40;0.38;;;0.38;;
54430;SDS011;40342;52.998;5.862;2024-03-29T11:00:13;1.15;;;0.30;;
54430;SDS011;40342;52.998;5.862;2024-03-29T11:02:51;1.17;;;0.35;;
54430;SDS011;40342;52.998;5.862;2024-03-29T11:05:32;0.77;;;0.30;;
54430;SDS011;40342;52.998;5.862;2024-03-29T11:08:00;1.05;;;0.70;;
54430;SDS011;40342;52.998;5.862;2024-03-29T11:10:34;0.40;;;0.30;;
54430;SDS011;40342;52.998;5.862;2024-03-29T11:16:04;0.73;;;0.60;;
54430;SDS011;40342;52.998;5.862;2024-03-29T11:18:30;0.40;;;0.35;;
54430;SDS011;40342;52.998;5.862;2024-03-29T11:20:59;2.22;;;0.40;;
54430;SDS011;40342;52.998;5.862;2024-03-29T11:23:27;0.95;;;0.40;;
54430;SDS011;40342;52.998;5.862;2024-03-29T11:25:57;0.50;;;0.40;;
54430;SDS011;40342;52.998;5.862;2024-03-29T11:28:25;0.90;;;0.47;;
54430;SDS011;40342;52.998;5.862;2024-03-29T11:30:52;2.67;;;0.40;;
54430;SDS011;40342;52.998;5.862;2024-03-29T11:36:22;0.88;;;0.43;;
54430;SDS011;40342;52.998;5.862;2024-03-29T11:38:55;0.73;;;0.38;;
54430;SDS011;40342;52.998;5.862;2024-03-29T11:41:25;0.40;;;0.32;;
54430;SDS011;40342;52.998;5.862;2024-03-29T11:43:56;0.90;;;0.60;;
54430;SDS011;40342;52.998;5.862;2024-03-29T11:46:22;0.63;;;0.52;;
54430;SDS011;40342;52.998;5.862;2024-03-29T11:48:49;0.65;;;0.45;;
54430;SDS011;40342;52.998;5.862;2024-03-29T11:51:17;2.05;;;0.70;;
54430;SDS011;40342;52.998;5.862;2024-03-29T11:53:46;2.53;;;0.52;;
54430;SDS011;40342;52.998;5.862;2024-03-29T11:56:12;0.80;;;0.40;;
54430;SDS011;40342;52.998;5.862;2024-03-29T11:58:40;1.00;;;0.60;;
54430;SDS011;40342;52.998;5.862;2024-03-29T12:01:06;2.30;;;0.50;;
54430;SDS011;40342;52.998;5.862;2024-03-29T12:03:37;1.85;;;0.40;;
54430;SDS011;40342;52.998;5.862;2024-03-29T12:06:03;1.38;;;0.60;;
54430;SDS011;40342;52.998;5.862;2024-03-29T12:08:33;1.17;;;0.40;;
54430;SDS011;40342;52.998;5.862;2024-03-29T12:11:00;0.50;;;0.40;;
54430;SDS011;40342;52.998;5.862;2024-03-29T12:13:27;0.70;;;0.40;;
54430;SDS011;40342;52.998;5.862;2024-03-29T12:15:53;2.20;;;0.70;;
54430;SDS011;40342;52.998;5.862;2024-03-29T12:18:19;1.92;;;0.40;;
54430;SDS011;40342;52.998;5.862;2024-03-29T12:20:47;1.35;;;0.40;;
54430;SDS011;40342;52.998;5.862;2024-03-29T12:23:15;0.52;;;0.40;;
54430;SDS011;40342;52.998;5.862;2024-03-29T12:25:42;1.40;;;0.40;;
54430;SDS011;40342;52.998;5.862;2024-03-29T12:28:07;1.20;;;0.43;;
54430;SDS011;40342;52.998;5.862;2024-03-29T12:30:35;0.43;;;0.40;;
54430;SDS011;40342;52.998;5.862;2024-03-29T12:33:03;1.00;;;0.43;;
54430;SDS011;40342;52.998;5.862;2024-03-29T12:35:31;2.78;;;0.40;;
54430;SDS011;40342;52.998;5.862;2024-03-29T12:38:04;2.47;;;0.70;;
54430;SDS011;40342;52.998;5.862;2024-03-29T12:40:32;1.48;;;0.43;;
54430;SDS011;40342;52.998;5.862;2024-03-29T12:43:03;0.93;;;0.52;;
54430;SDS011;40342;52.998;5.862;2024-03-29T12:45:30;1.17;;;0.40;;
54430;SDS011;40342;52.998;5.862;2024-03-29T12:47:56;3.25;;;0.68;;
54430;SDS011;40342;52.998;5.862;2024-03-29T12:50:26;1.08;;;0.40;;
54430;SDS011;40342;52.998;5.862;2024-03-29T12:52:57;0.98;;;0.60;;
54430;SDS011;40342;52.998;5.862;2024-03-29T12:55:24;1.05;;;0.60;;
54430;SDS011;40342;52.998;5.862;2024-03-29T12:58:00;0.95;;;0.63;;
54430;SDS011;40342;52.998;5.862;2024-03-29T13:00:29;1.50;;;0.70;;
54430;SDS011;40342;52.998;5.862;2024-03-29T13:02:58;0.57;;;0.32;;
54430;SDS011;40342;52.998;5.862;2024-03-29T13:05:23;1.20;;;0.65;;
54430;SDS011;40342;52.998;5.862;2024-03-29T13:07:49;1.25;;;0.60;;
54430;SDS011;40342;52.998;5.862;2024-03-29T13:10:15;0.63;;;0.50;;
54430;SDS011;40342;52.998;5.862;2024-03-29T13:12:45;0.90;;;0.50;;
54430;SDS011;40342;52.998;5.862;2024-03-29T13:15:18;0.85;;;0.50;;
54430;SDS011;40342;52.998;5.862;2024-03-29T13:17:51;3.58;;;0.77;;
54430;SDS011;40342;52.998;5.862;2024-03-29T13:20:18;2.25;;;0.70;;
54430;SDS011;40342;52.998;5.862;2024-03-29T13:22:45;0.93;;;0.60;;
54430;SDS011;40342;52.998;5.862;2024-03-29T13:25:13;1.30;;;0.65;;
54430;SDS011;40342;52.998;5.862;2024-03-29T13:27:39;0.85;;;0.65;;
54430;SDS011;40342;52.998;5.862;2024-03-29T13:30:07;1.35;;;0.50;;
54430;SDS011;40342;52.998;5.862;2024-03-29T13:32:37;2.05;;;0.77;;
54430;SDS011;40342;52.998;5.862;2024-03-29T13:35:07;3.38;;;0.80;;
54430;SDS011;40342;52.998;5.862;2024-03-29T13:37:40;1.20;;;0.73;;
54430;SDS011;40342;52.998;5.862;2024-03-29T13:40:11;2.17;;;0.47;;
54430;SDS011;40342;52.998;5.862;2024-03-29T13:42:37;3.03;;;1.00;;
54430;SDS011;40342;52.998;5.862;2024-03-29T13:45:03;1.88;;;0.77;;
54430;SDS011;40342;52.998;5.862;2024-03-29T13:47:30;1.73;;;0.80;;
54430;SDS011;40342;52.998;5.862;2024-03-29T13:49:58;1.50;;;0.82;;
54430;SDS011;40342;52.998;5.862;2024-03-29T13:52:24;2.15;;;0.88;;
54430;SDS011;40342;52.998;5.862;2024-03-29T13:54:52;1.85;;;0.90;;
54430;SDS011;40342;52.998;5.862;2024-03-29T13:57:17;1.58;;;0.88;;
54430;SDS011;40342;52.998;5.862;2024-03-29T13:59:43;0.65;;;0.65;;
54430;SDS011;40342;52.998;5.862;2024-03-29T14:02:14;1.60;;;0.70;;
54430;SDS011;40342;52.998;5.862;2024-03-29T14:04:42;2.58;;;0.80;;
54430;SDS011;40342;52.998;5.862;2024-03-29T14:07:08;0.93;;;0.70;;
54430;SDS011;40342;52.998;5.862;2024-03-29T14:09:36;0.82;;;0.80;;
54430;SDS011;40342;52.998;5.862;2024-03-29T14:12:03;1.30;;;0.80;;
54430;SDS011;40342;52.998;5.862;2024-03-29T14:14:30;1.00;;;0.60;;
54430;SDS011;40342;52.998;5.862;2024-03-29T14:16:56;0.70;;;0.60;;
54430;SDS011;40342;52.998;5.862;2024-03-29T14:19:22;0.80;;;0.70;;
54430;SDS011;40342;52.998;5.862;2024-03-29T14:21:47;2.63;;;0.82;;
54430;SDS011;40342;52.998;5.862;2024-03-29T14:24:13;0.77;;;0.63;;
54430;SDS011;40342;52.998;5.862;2024-03-29T14:26:40;1.98;;;0.90;;
54430;SDS011;40342;52.998;5.862;2024-03-29T14:29:07;2.05;;;0.70;;
54430;SDS011;40342;52.998;5.862;2024-03-29T14:31:33;2.83;;;1.00;;
54430;SDS011;40342;52.998;5.862;2024-03-29T14:33:59;1.33;;;0.70;;
54430;SDS011;40342;52.998;5.862;2024-03-29T14:36:24;1.58;;;0.93;;
54430;SDS011;40342;52.998;5.862;2024-03-29T14:38:50;1.63;;;0.98;;
54430;SDS011;40342;52.998;5.862;2024-03-29T14:41:17;1.38;;;0.73;;
54430;SDS011;40342;52.998;5.862;2024-03-29T14:43:46;2.33;;;0.90;;
54430;SDS011;40342;52.998;5.862;2024-03-29T14:46:15;0.95;;;0.77;;
54430;SDS011;40342;52.998;5.862;2024-03-29T14:48:41;0.73;;;0.60;;
54430;SDS011;40342;52.998;5.862;2024-03-29T14:51:08;1.23;;;0.70;;
54430;SDS011;40342;52.998;5.862;2024-03-29T14:53:34;3.28;;;0.80;;